createdAt,value
2017-08-17T00:00:09.854Z,0
2017-08-17T00:01:22.477Z,0
2017-08-17T00:02:35.147Z,0
2017-08-17T00:03:47.138Z,0
2017-08-17T00:04:59.119Z,0
2017-08-17T00:06:11.731Z,0
2017-08-17T00:07:23.754Z,0
2017-08-17T00:08:35.757Z,0
2017-08-17T00:09:48.030Z,0
2017-08-17T00:11:00.626Z,0
2017-08-17T00:12:12.896Z,0
2017-08-17T00:13:25.481Z,0
2017-08-17T00:14:37.778Z,0
2017-08-17T00:15:50.014Z,0
2017-08-17T00:17:02.612Z,0
2017-08-17T00:18:15.292Z,0
2017-08-17T00:19:27.314Z,0
2017-08-17T00:20:39.612Z,0
2017-08-17T00:21:52.144Z,0
2017-08-17T00:23:04.398Z,0
2017-08-17T00:24:17.225Z,0
2017-08-17T00:25:29.216Z,0
2017-08-17T00:26:41.493Z,0
2017-08-17T00:27:53.458Z,0
2017-08-17T00:29:06.046Z,0
2017-08-17T00:30:18.650Z,0
2017-08-17T00:31:30.637Z,0
2017-08-17T00:32:43.215Z,0
2017-08-17T00:33:55.790Z,0
2017-08-17T00:35:08.360Z,0
2017-08-17T00:36:20.653Z,0
2017-08-17T00:37:33.198Z,0
2017-08-17T00:38:44.856Z,0
2017-08-17T00:39:57.183Z,0
2017-08-17T00:41:09.161Z,0
2017-08-17T00:42:21.809Z,0
2017-08-17T00:43:34.054Z,0
2017-08-17T00:44:46.102Z,0
2017-08-17T00:45:58.962Z,0
2017-08-17T00:47:11.272Z,0
2017-08-17T00:48:23.216Z,0
2017-08-17T00:49:35.807Z,0
2017-08-17T00:50:48.432Z,0
2017-08-17T00:52:01.006Z,0
2017-08-17T00:53:13.332Z,0
2017-08-17T00:54:25.897Z,0
2017-08-17T00:55:38.496Z,0
2017-08-17T00:56:51.126Z,0
2017-08-17T00:58:03.707Z,0
2017-08-17T00:59:16.300Z,0
2017-08-17T01:00:28.914Z,0
2017-08-17T01:01:41.192Z,0
2017-08-17T01:02:53.771Z,0
2017-08-17T01:04:06.069Z,0
2017-08-17T01:05:18.679Z,0
2017-08-17T01:06:31.025Z,0
2017-08-17T01:07:43.689Z,0
2017-08-17T01:08:56.323Z,0
2017-08-17T01:10:08.638Z,0
2017-08-17T01:11:21.310Z,0
2017-08-17T01:12:33.899Z,0
2017-08-17T01:13:46.489Z,0
2017-08-17T01:14:59.140Z,0
2017-08-17T01:16:11.724Z,0
2017-08-17T01:17:24.338Z,0
2017-08-17T01:18:37.139Z,0
2017-08-17T01:19:49.456Z,0
2017-08-17T01:21:01.677Z,0
2017-08-17T01:22:14.278Z,0
2017-08-17T01:23:26.518Z,0
2017-08-17T01:24:38.763Z,0
2017-08-17T01:25:51.016Z,0
2017-08-17T01:27:03.648Z,0
2017-08-17T01:28:16.258Z,0
2017-08-17T01:29:28.309Z,0
2017-08-17T01:30:40.295Z,0
2017-08-17T01:31:52.843Z,0
2017-08-17T01:33:05.385Z,0
2017-08-17T01:34:18.013Z,0
2017-08-17T01:35:30.346Z,0
2017-08-17T01:36:42.358Z,0
2017-08-17T01:37:54.712Z,0
2017-08-17T01:39:07.293Z,0
2017-08-17T01:40:19.904Z,0
2017-08-17T01:41:31.874Z,0
2017-08-17T01:42:44.231Z,0
2017-08-17T01:43:56.485Z,0
2017-08-17T01:45:09.070Z,0
2017-08-17T01:46:21.292Z,0
2017-08-17T01:47:33.894Z,0
2017-08-17T01:48:46.540Z,0
2017-08-17T01:49:59.159Z,0
2017-08-17T01:51:11.753Z,0
2017-08-17T01:52:23.721Z,0
2017-08-17T01:53:36.308Z,0
2017-08-17T01:54:48.919Z,0
2017-08-17T01:56:00.902Z,0
2017-08-17T01:57:13.228Z,0
2017-08-17T01:58:25.248Z,0
2017-08-17T01:59:37.528Z,0
2017-08-17T02:00:50.174Z,0
2017-08-17T02:02:02.194Z,0
2017-08-17T02:03:14.165Z,0
2017-08-17T02:04:26.731Z,0
2017-08-17T02:05:39.357Z,0
2017-08-17T02:06:52.007Z,0
2017-08-17T02:08:04.599Z,0
2017-08-17T02:09:16.929Z,0
2017-08-17T02:10:28.925Z,0
2017-08-17T02:11:41.546Z,0
2017-08-17T02:12:54.428Z,0
2017-08-17T02:14:07.029Z,0
2017-08-17T02:15:19.348Z,0
2017-08-17T02:16:31.656Z,0
2017-08-17T02:17:44.482Z,0
2017-08-17T02:18:57.132Z,0
2017-08-17T02:20:09.455Z,0
2017-08-17T02:21:21.810Z,0
2017-08-17T02:22:34.085Z,0
2017-08-17T02:23:46.380Z,0
2017-08-17T02:24:58.640Z,0
2017-08-17T02:26:11.181Z,0
2017-08-17T02:27:23.478Z,0
2017-08-17T02:28:36.073Z,0
2017-08-17T02:29:48.367Z,0
2017-08-17T02:31:00.921Z,0
2017-08-17T02:32:13.267Z,0
2017-08-17T02:33:25.517Z,0
2017-08-17T02:34:38.210Z,0
2017-08-17T02:35:50.202Z,0
2017-08-17T02:37:02.524Z,0
2017-08-17T02:38:14.869Z,0
2017-08-17T02:39:27.490Z,0
2017-08-17T02:40:40.042Z,0
2017-08-17T02:41:52.309Z,0
2017-08-17T02:43:04.580Z,0
2017-08-17T02:44:16.895Z,0
2017-08-17T02:45:29.193Z,0
2017-08-17T02:46:41.123Z,0
2017-08-17T02:47:53.655Z,0
2017-08-17T02:49:06.227Z,0
2017-08-17T02:50:18.501Z,0
2017-08-17T02:51:30.749Z,0
2017-08-17T02:52:43.270Z,0
2017-08-17T02:53:55.555Z,0
2017-08-17T02:55:07.830Z,0
2017-08-17T02:56:20.440Z,0
2017-08-17T02:57:33.050Z,0
2017-08-17T02:58:45.701Z,0
2017-08-17T02:59:57.997Z,0
2017-08-17T03:01:10.306Z,0
2017-08-17T03:02:22.595Z,0
2017-08-17T03:03:34.904Z,0
2017-08-17T03:04:47.492Z,0
2017-08-17T03:06:00.146Z,0
2017-08-17T03:07:12.427Z,0
2017-08-17T03:08:24.071Z,0
2017-08-17T03:09:36.057Z,0
2017-08-17T03:10:48.680Z,0
2017-08-17T03:12:00.918Z,0
2017-08-17T03:13:13.204Z,0
2017-08-17T03:14:25.495Z,0
2017-08-17T03:15:37.731Z,0
2017-08-17T03:16:50.322Z,0
2017-08-17T03:18:03.143Z,0
2017-08-17T03:19:15.763Z,0
2017-08-17T03:20:28.065Z,0
2017-08-17T03:21:40.645Z,0
2017-08-17T03:22:53.185Z,0
2017-08-17T03:24:05.753Z,0
2017-08-17T03:25:18.331Z,0
2017-08-17T03:26:30.883Z,0
2017-08-17T03:27:43.499Z,0
2017-08-17T03:28:56.074Z,0
2017-08-17T03:30:08.340Z,0
2017-08-17T03:31:20.929Z,0
2017-08-17T03:32:33.196Z,0
2017-08-17T03:33:45.809Z,0
2017-08-17T03:34:58.408Z,0
2017-08-17T03:36:11.050Z,0
2017-08-17T03:37:23.322Z,0
2017-08-17T03:38:35.633Z,0
2017-08-17T03:39:47.932Z,0
2017-08-17T03:41:00.188Z,0
2017-08-17T03:42:12.836Z,0
2017-08-17T03:43:25.463Z,0
2017-08-17T03:44:37.751Z,0
2017-08-17T03:45:50.367Z,0
2017-08-17T03:47:02.366Z,5
2017-08-17T03:48:14.312Z,5
2017-08-17T03:49:26.908Z,5
2017-08-17T03:50:39.695Z,5
2017-08-17T03:51:51.976Z,5
2017-08-17T03:53:04.639Z,5
2017-08-17T03:54:16.615Z,5
2017-08-17T03:55:29.228Z,10
2017-08-17T03:56:41.485Z,10
2017-08-17T03:57:53.429Z,10
2017-08-17T03:59:06.074Z,10
2017-08-17T04:00:18.617Z,15
2017-08-17T04:01:31.189Z,15
2017-08-17T04:02:43.833Z,15
2017-08-17T04:03:56.382Z,15
2017-08-17T04:05:08.985Z,20
2017-08-17T04:06:21.554Z,20
2017-08-17T04:07:34.187Z,20
2017-08-17T04:08:46.785Z,25
2017-08-17T04:09:59.313Z,25
2017-08-17T04:11:11.615Z,25
2017-08-17T04:12:24.158Z,30
2017-08-17T04:13:36.807Z,30
2017-08-17T04:14:49.094Z,35
2017-08-17T04:16:01.752Z,35
2017-08-17T04:17:14.011Z,35
2017-08-17T04:18:26.332Z,40
2017-08-17T04:19:38.649Z,40
2017-08-17T04:20:50.905Z,40
2017-08-17T04:22:03.517Z,45
2017-08-17T04:23:16.085Z,45
2017-08-17T04:24:27.722Z,45
2017-08-17T04:25:40.034Z,50
2017-08-17T04:26:52.622Z,50
2017-08-17T04:28:04.894Z,55
2017-08-17T04:29:17.151Z,55
2017-08-17T04:30:29.771Z,55
2017-08-17T04:31:42.370Z,60
2017-08-17T04:32:54.653Z,60
2017-08-17T04:34:07.204Z,65
2017-08-17T04:35:19.462Z,65
2017-08-17T04:36:32.069Z,65
2017-08-17T04:37:44.663Z,70
2017-08-17T04:38:56.964Z,70
2017-08-17T04:40:09.604Z,75
2017-08-17T04:41:21.609Z,75
2017-08-17T04:42:34.236Z,75
2017-08-17T04:43:46.234Z,80
2017-08-17T04:44:58.520Z,80
2017-08-17T04:46:10.213Z,85
2017-08-17T04:47:22.457Z,85
2017-08-17T04:48:34.435Z,85
2017-08-17T04:49:47.015Z,90
2017-08-17T04:50:59.241Z,90
2017-08-17T04:52:11.513Z,90
2017-08-17T04:53:23.782Z,95
2017-08-17T04:54:36.104Z,95
2017-08-17T04:55:48.416Z,100
2017-08-17T04:57:00.732Z,100
2017-08-17T04:58:13.330Z,105
2017-08-17T04:59:25.612Z,105
2017-08-17T05:00:37.976Z,110
2017-08-17T05:01:50.532Z,110
2017-08-17T05:03:02.817Z,110
2017-08-17T05:04:15.048Z,115
2017-08-17T05:05:27.068Z,115
2017-08-17T05:06:39.302Z,120
2017-08-17T05:07:51.835Z,120
2017-08-17T05:09:03.833Z,125
2017-08-17T05:10:16.434Z,125
2017-08-17T05:11:28.421Z,125
2017-08-17T05:12:41.025Z,130
2017-08-17T05:13:53.046Z,130
2017-08-17T05:15:05.322Z,130
2017-08-17T05:16:17.641Z,135
2017-08-17T05:17:30.544Z,135
2017-08-17T05:18:42.776Z,140
2017-08-17T05:19:55.392Z,140
2017-08-17T05:21:07.642Z,145
2017-08-17T05:22:19.927Z,145
2017-08-17T05:23:32.533Z,150
2017-08-17T05:24:45.126Z,150
2017-08-17T05:25:57.722Z,155
2017-08-17T05:27:10.321Z,160
2017-08-17T05:28:22.933Z,165
2017-08-17T05:29:35.565Z,165
2017-08-17T05:30:47.559Z,170
2017-08-17T05:32:00.126Z,180
2017-08-17T05:33:12.749Z,185
2017-08-17T05:34:24.693Z,195
2017-08-17T05:35:37.296Z,195
2017-08-17T05:36:49.903Z,200
2017-08-17T05:38:02.140Z,200
2017-08-17T05:39:14.376Z,200
2017-08-17T05:40:26.666Z,195
2017-08-17T05:41:39.253Z,195
2017-08-17T05:42:51.843Z,195
2017-08-17T05:44:04.407Z,190
2017-08-17T05:45:16.408Z,190
2017-08-17T05:46:28.133Z,190
2017-08-17T05:47:40.741Z,190
2017-08-17T05:48:53.323Z,185
2017-08-17T05:50:04.990Z,190
2017-08-17T05:51:17.620Z,190
2017-08-17T05:52:29.933Z,185
2017-08-17T05:53:42.231Z,185
2017-08-17T05:54:54.537Z,190
2017-08-17T05:56:06.832Z,190
2017-08-17T05:57:19.448Z,195
2017-08-17T05:58:32.018Z,195
2017-08-17T05:59:44.583Z,195
2017-08-17T06:00:57.162Z,200
2017-08-17T06:02:09.380Z,205
2017-08-17T06:03:21.901Z,200
2017-08-17T06:04:34.467Z,195
2017-08-17T06:05:47.091Z,195
2017-08-17T06:06:59.388Z,195
2017-08-17T06:08:11.642Z,200
2017-08-17T06:09:24.236Z,200
2017-08-17T06:10:35.946Z,200
2017-08-17T06:11:48.553Z,200
2017-08-17T06:13:01.146Z,200
2017-08-17T06:14:13.809Z,200
2017-08-17T06:15:26.091Z,210
2017-08-17T06:16:38.369Z,220
2017-08-17T06:17:51.009Z,225
2017-08-17T06:19:03.275Z,230
2017-08-17T06:20:15.867Z,240
2017-08-17T06:21:28.198Z,245
2017-08-17T06:22:40.808Z,265
2017-08-17T06:23:53.054Z,280
2017-08-17T06:25:05.284Z,285
2017-08-17T06:26:18.085Z,310
2017-08-17T06:27:29.739Z,350
2017-08-17T06:28:42.027Z,380
2017-08-17T06:29:54.645Z,500
2017-08-17T06:31:06.931Z,645
2017-08-17T06:32:19.554Z,670
2017-08-17T06:33:32.175Z,690
2017-08-17T06:34:44.766Z,670
2017-08-17T06:35:57.339Z,690
2017-08-17T06:37:09.307Z,700
2017-08-17T06:38:21.914Z,700
2017-08-17T06:39:34.254Z,705
2017-08-17T06:40:46.244Z,730
2017-08-17T06:41:58.821Z,715
2017-08-17T06:43:11.161Z,715
2017-08-17T06:44:23.433Z,715
2017-08-17T06:45:35.760Z,660
2017-08-17T06:46:48.004Z,635
2017-08-17T06:48:00.573Z,635
2017-08-17T06:49:12.858Z,630
2017-08-17T06:50:25.504Z,655
2017-08-17T06:51:38.135Z,680
2017-08-17T06:52:50.664Z,640
2017-08-17T06:54:02.655Z,710
2017-08-17T06:55:15.263Z,720
2017-08-17T06:56:27.797Z,715
2017-08-17T06:57:40.420Z,745
2017-08-17T06:58:53.037Z,755
2017-08-17T07:00:05.621Z,740
2017-08-17T07:01:17.603Z,730
2017-08-17T07:02:29.896Z,740
2017-08-17T07:03:42.450Z,760
2017-08-17T07:04:54.728Z,760
2017-08-17T07:06:07.365Z,815
2017-08-17T07:07:19.969Z,830
2017-08-17T07:08:32.623Z,835
2017-08-17T07:09:45.197Z,885
2017-08-17T07:10:57.168Z,895
2017-08-17T07:12:09.163Z,915
2017-08-17T07:13:21.735Z,930
2017-08-17T07:14:34.305Z,900
2017-08-17T07:15:46.883Z,895
2017-08-17T07:16:59.491Z,940
2017-08-17T07:18:11.849Z,955
2017-08-17T07:19:24.195Z,945
2017-08-17T07:20:36.134Z,915
2017-08-17T07:21:48.731Z,995
2017-08-17T07:23:01.266Z,1045
2017-08-17T07:24:13.824Z,1050
2017-08-17T07:25:26.093Z,1045
2017-08-17T07:26:38.352Z,1100
2017-08-17T07:27:50.653Z,1160
2017-08-17T07:29:03.330Z,1205
2017-08-17T07:30:15.325Z,1140
2017-08-17T07:31:27.947Z,1065
2017-08-17T07:32:39.970Z,1130
2017-08-17T07:33:52.550Z,1215
2017-08-17T07:35:05.197Z,1145
2017-08-17T07:36:17.513Z,1175
2017-08-17T07:37:29.840Z,1170
2017-08-17T07:38:42.449Z,1210
2017-08-17T07:39:55.048Z,1205
2017-08-17T07:41:07.707Z,1270
2017-08-17T07:42:20.060Z,1290
2017-08-17T07:43:32.693Z,1265
2017-08-17T07:44:45.285Z,1295
2017-08-17T07:45:57.937Z,1240
2017-08-17T07:47:10.272Z,1280
2017-08-17T07:48:22.275Z,1290
2017-08-17T07:49:34.979Z,1440
2017-08-17T07:50:47.661Z,1350
2017-08-17T07:51:59.960Z,1445
2017-08-17T07:53:12.577Z,1460
2017-08-17T07:54:25.177Z,1440
2017-08-17T07:55:37.202Z,1410
2017-08-17T07:56:49.238Z,1480
2017-08-17T07:58:01.851Z,1470
2017-08-17T07:59:14.146Z,1450
2017-08-17T08:00:26.424Z,1610
2017-08-17T08:01:39.020Z,1635
2017-08-17T08:02:51.367Z,1655
2017-08-17T08:04:03.674Z,1690
2017-08-17T08:05:16.263Z,1625
2017-08-17T08:06:28.897Z,1580
2017-08-17T08:07:40.929Z,1535
2017-08-17T08:08:53.632Z,1485
2017-08-17T08:10:05.923Z,890
2017-08-17T08:11:18.194Z,370
2017-08-17T08:12:30.838Z,350
2017-08-17T08:13:43.512Z,340
2017-08-17T08:14:55.855Z,350
2017-08-17T08:16:08.128Z,340
2017-08-17T08:17:20.725Z,345
2017-08-17T08:18:32.754Z,355
2017-08-17T08:19:44.753Z,375
2017-08-17T08:20:57.367Z,355
2017-08-17T08:22:09.951Z,360
2017-08-17T08:23:22.278Z,375
2017-08-17T08:24:34.861Z,405
2017-08-17T08:25:47.471Z,390
2017-08-17T08:26:59.541Z,395
2017-08-17T08:28:12.135Z,370
2017-08-17T08:29:24.761Z,395
2017-08-17T08:30:37.078Z,415
2017-08-17T08:31:49.324Z,425
2017-08-17T08:33:01.906Z,400
2017-08-17T08:34:14.503Z,385
2017-08-17T08:35:26.868Z,395
2017-08-17T08:36:39.499Z,390
2017-08-17T08:37:51.839Z,390
2017-08-17T08:39:04.435Z,425
2017-08-17T08:40:16.733Z,410
2017-08-17T08:41:29.386Z,445
2017-08-17T08:42:41.306Z,465
2017-08-17T08:43:53.831Z,440
2017-08-17T08:45:06.434Z,475
2017-08-17T08:46:18.447Z,405
2017-08-17T08:47:31.066Z,420
2017-08-17T08:48:43.597Z,400
2017-08-17T08:49:56.190Z,395
2017-08-17T08:51:08.490Z,385
2017-08-17T08:52:21.106Z,405
2017-08-17T08:53:33.749Z,390
2017-08-17T08:54:46.349Z,390
2017-08-17T08:55:58.940Z,390
2017-08-17T08:57:11.509Z,395
2017-08-17T08:58:23.806Z,400
2017-08-17T08:59:36.667Z,395
2017-08-17T09:00:48.973Z,395
2017-08-17T09:02:00.952Z,400
2017-08-17T09:03:13.535Z,400
2017-08-17T09:04:26.164Z,405
2017-08-17T09:05:38.804Z,405
2017-08-17T09:06:51.374Z,405
2017-08-17T09:08:04.048Z,405
2017-08-17T09:09:16.620Z,400
2017-08-17T09:10:28.936Z,400
2017-08-17T09:11:41.573Z,400
2017-08-17T09:12:53.611Z,400
2017-08-17T09:14:06.242Z,400
2017-08-17T09:15:18.492Z,410
2017-08-17T09:16:30.521Z,415
2017-08-17T09:17:43.103Z,420
2017-08-17T09:18:55.426Z,430
2017-08-17T09:20:07.772Z,440
2017-08-17T09:21:19.733Z,445
2017-08-17T09:22:31.801Z,450
2017-08-17T09:23:44.124Z,450
2017-08-17T09:24:56.399Z,455
2017-08-17T09:26:08.991Z,465
2017-08-17T09:27:21.612Z,475
2017-08-17T09:28:33.901Z,475
2017-08-17T09:29:46.478Z,490
2017-08-17T09:30:59.097Z,500
2017-08-17T09:32:11.366Z,495
2017-08-17T09:33:23.312Z,500
2017-08-17T09:34:35.887Z,485
2017-08-17T09:35:48.478Z,485
2017-08-17T09:37:00.757Z,495
2017-08-17T09:38:13.628Z,505
2017-08-17T09:39:25.314Z,500
2017-08-17T09:40:37.303Z,505
2017-08-17T09:41:49.925Z,510
2017-08-17T09:43:02.555Z,510
2017-08-17T09:44:15.141Z,495
2017-08-17T09:45:27.184Z,495
2017-08-17T09:46:39.781Z,495
2017-08-17T09:47:51.828Z,490
2017-08-17T09:49:04.406Z,490
2017-08-17T09:50:17.008Z,490
2017-08-17T09:51:29.050Z,485
2017-08-17T09:52:41.297Z,480
2017-08-17T09:53:53.866Z,475
2017-08-17T09:55:06.163Z,480
2017-08-17T09:56:18.488Z,485
2017-08-17T09:57:31.158Z,490
2017-08-17T09:58:43.449Z,495
2017-08-17T09:59:56.252Z,500
2017-08-17T10:01:08.893Z,495
2017-08-17T10:02:20.611Z,500
2017-08-17T10:03:32.660Z,510
2017-08-17T10:04:44.954Z,520
2017-08-17T10:05:57.535Z,660
2017-08-17T10:07:09.881Z,1365
2017-08-17T10:08:22.548Z,1840
2017-08-17T10:09:34.842Z,1715
2017-08-17T10:10:47.086Z,1095
2017-08-17T10:11:59.647Z,950
2017-08-17T10:13:12.277Z,1405
2017-08-17T10:14:24.649Z,1590
2017-08-17T10:15:37.284Z,1345
2017-08-17T10:16:49.841Z,945
2017-08-17T10:18:02.124Z,925
2017-08-17T10:19:14.487Z,1465
2017-08-17T10:20:27.105Z,1345
2017-08-17T10:21:39.701Z,980
2017-08-17T10:22:52.017Z,780
2017-08-17T10:24:04.641Z,725
2017-08-17T10:25:17.219Z,1010
2017-08-17T10:26:28.911Z,1370
2017-08-17T10:27:40.919Z,1715
2017-08-17T10:28:53.489Z,2360
2017-08-17T10:30:06.171Z,4515
2017-08-17T10:31:18.214Z,5315
2017-08-17T10:32:30.490Z,4580
2017-08-17T10:33:42.773Z,4620
2017-08-17T10:34:55.029Z,4530
2017-08-17T10:36:07.350Z,3535
2017-08-17T10:37:19.341Z,2815
2017-08-17T10:38:31.596Z,2815
2017-08-17T10:39:43.910Z,2830
2017-08-17T10:40:56.549Z,2705
2017-08-17T10:42:09.151Z,2905
2017-08-17T10:43:21.772Z,2890
2017-08-17T10:44:33.774Z,2850
2017-08-17T10:45:45.190Z,3050
2017-08-17T10:46:57.197Z,1405
2017-08-17T10:48:09.260Z,1915
2017-08-17T10:49:21.537Z,3550
2017-08-17T10:50:32.956Z,2275
2017-08-17T10:51:45.025Z,2060
2017-08-17T10:52:57.591Z,850
2017-08-17T10:54:10.167Z,3340
2017-08-17T10:55:22.513Z,3465
2017-08-17T10:56:34.830Z,3420
2017-08-17T10:57:47.437Z,3600
2017-08-17T10:58:59.725Z,3660
2017-08-17T11:00:11.775Z,3825
2017-08-17T11:01:24.452Z,3850
2017-08-17T11:02:37.150Z,3695
2017-08-17T11:03:49.729Z,3820
2017-08-17T11:05:02.032Z,3655
2017-08-17T11:06:14.617Z,3700
2017-08-17T11:07:27.248Z,2985
2017-08-17T11:08:39.889Z,2810
2017-08-17T11:09:52.465Z,2670
2017-08-17T11:11:05.136Z,2640
2017-08-17T11:12:17.168Z,3305
2017-08-17T11:13:29.804Z,3425
2017-08-17T11:14:42.457Z,3185
2017-08-17T11:15:55.079Z,3205
2017-08-17T11:17:07.364Z,3225
2017-08-17T11:18:19.983Z,3080
2017-08-17T11:19:32.276Z,3445
2017-08-17T11:20:44.589Z,3360
2017-08-17T11:21:57.200Z,3205
2017-08-17T11:23:09.768Z,3015
2017-08-17T11:24:22.438Z,3050
2017-08-17T11:25:35.105Z,3190
2017-08-17T11:26:47.393Z,3405
2017-08-17T11:27:59.653Z,3610
2017-08-17T11:29:12.292Z,3460
2017-08-17T11:30:23.988Z,3340
2017-08-17T11:31:36.313Z,3500
2017-08-17T11:32:48.953Z,3415
2017-08-17T11:34:01.552Z,3175
2017-08-17T11:35:13.222Z,3280
2017-08-17T11:36:25.774Z,3650
2017-08-17T11:37:38.368Z,3810
2017-08-17T11:38:50.366Z,3940
2017-08-17T11:40:03.006Z,3210
2017-08-17T11:41:15.352Z,3465
2017-08-17T11:42:27.651Z,3760
2017-08-17T11:43:39.926Z,3980
2017-08-17T11:44:52.539Z,3945
2017-08-17T11:46:04.517Z,4080
2017-08-17T11:47:17.131Z,4355
2017-08-17T11:48:28.205Z,4695
2017-08-17T11:49:40.809Z,4125
2017-08-17T11:50:52.826Z,4160
2017-08-17T11:52:05.142Z,3330
2017-08-17T11:53:17.764Z,1915
2017-08-17T11:54:30.061Z,1170
2017-08-17T11:55:42.346Z,1170
2017-08-17T11:56:54.676Z,1310
2017-08-17T11:58:06.997Z,1310
2017-08-17T11:59:19.319Z,1390
2017-08-17T12:00:31.975Z,1580
2017-08-17T12:01:44.325Z,1870
2017-08-17T12:02:56.946Z,1730
2017-08-17T12:04:09.504Z,1545
2017-08-17T12:05:21.825Z,2065
2017-08-17T12:06:33.891Z,2620
2017-08-17T12:07:45.921Z,4095
2017-08-17T12:08:58.196Z,2910
2017-08-17T12:10:10.197Z,3355
2017-08-17T12:11:22.428Z,3250
2017-08-17T12:12:35.003Z,1235
2017-08-17T12:13:47.657Z,1225
2017-08-17T12:15:00.237Z,1315
2017-08-17T12:16:12.296Z,1455
2017-08-17T12:17:24.612Z,1005
2017-08-17T12:18:37.231Z,1680
2017-08-17T12:19:49.882Z,1795
2017-08-17T12:21:02.467Z,1800
2017-08-17T12:22:15.094Z,1095
2017-08-17T12:23:27.069Z,1035
2017-08-17T12:24:39.061Z,935
2017-08-17T12:25:51.638Z,895
2017-08-17T12:27:04.271Z,910
2017-08-17T12:28:16.630Z,815
2017-08-17T12:29:28.920Z,760
2017-08-17T12:30:41.511Z,840
2017-08-17T12:31:54.117Z,950
2017-08-17T12:33:06.432Z,1020
2017-08-17T12:34:19.002Z,1235
2017-08-17T12:35:31.372Z,1280
2017-08-17T12:36:43.990Z,1210
2017-08-17T12:37:56.616Z,1655
2017-08-17T12:39:08.887Z,1890
2017-08-17T12:40:21.527Z,2235
2017-08-17T12:41:34.124Z,1570
2017-08-17T12:42:46.400Z,1535
2017-08-17T12:43:59.002Z,1385
2017-08-17T12:45:11.592Z,1175
2017-08-17T12:46:23.925Z,975
2017-08-17T12:47:36.489Z,990
2017-08-17T12:48:49.187Z,1015
2017-08-17T12:50:01.206Z,850
2017-08-17T12:51:13.825Z,780
2017-08-17T12:52:25.829Z,765
2017-08-17T12:53:38.123Z,820
2017-08-17T12:54:50.144Z,945
2017-08-17T12:56:02.798Z,960
2017-08-17T12:57:15.101Z,925
2017-08-17T12:58:27.720Z,990
2017-08-17T12:59:39.766Z,1035
2017-08-17T13:00:51.766Z,1095
2017-08-17T13:02:04.082Z,1150
2017-08-17T13:03:16.360Z,1015
2017-08-17T13:04:28.988Z,960
2017-08-17T13:05:41.266Z,900
2017-08-17T13:06:53.913Z,845
2017-08-17T13:08:06.188Z,845
2017-08-17T13:09:18.272Z,855
2017-08-17T13:10:30.861Z,850
2017-08-17T13:11:42.871Z,840
2017-08-17T13:12:55.468Z,880
2017-08-17T13:14:08.044Z,910
2017-08-17T13:15:19.714Z,1045
2017-08-17T13:16:32.008Z,1030
2017-08-17T13:17:44.577Z,995
2017-08-17T13:18:57.162Z,930
2017-08-17T13:20:09.118Z,915
2017-08-17T13:21:21.107Z,910
2017-08-17T13:22:33.671Z,895
2017-08-17T13:23:46.061Z,890
2017-08-17T13:24:58.366Z,885
2017-08-17T13:26:10.698Z,885
2017-08-17T13:27:23.016Z,885
2017-08-17T13:28:35.276Z,875
2017-08-17T13:29:47.285Z,870
2017-08-17T13:30:59.831Z,855
2017-08-17T13:32:12.088Z,830
2017-08-17T13:33:24.434Z,795
2017-08-17T13:34:36.768Z,785
2017-08-17T13:35:49.026Z,760
2017-08-17T13:37:01.610Z,745
2017-08-17T13:38:13.838Z,735
2017-08-17T13:39:26.153Z,725
2017-08-17T13:40:38.705Z,740
2017-08-17T13:41:50.430Z,785
2017-08-17T13:43:03.046Z,815
2017-08-17T13:44:15.703Z,795
2017-08-17T13:45:27.934Z,800
2017-08-17T13:46:39.604Z,790
2017-08-17T13:47:52.152Z,770
2017-08-17T13:49:04.143Z,770
2017-08-17T13:50:16.398Z,770
2017-08-17T13:51:28.991Z,760
2017-08-17T13:52:40.636Z,760
2017-08-17T13:53:52.890Z,750
2017-08-17T13:55:05.579Z,760
2017-08-17T13:56:18.172Z,805
2017-08-17T13:57:30.768Z,835
2017-08-17T13:58:42.743Z,835
2017-08-17T13:59:54.689Z,805
2017-08-17T14:01:07.235Z,785
2017-08-17T14:02:19.801Z,750
2017-08-17T14:03:32.149Z,720
2017-08-17T14:04:44.140Z,690
2017-08-17T14:05:56.438Z,675
2017-08-17T14:07:09.062Z,685
2017-08-17T14:08:21.707Z,685
2017-08-17T14:09:34.293Z,700
2017-08-17T14:10:46.877Z,710
2017-08-17T14:11:59.521Z,730
2017-08-17T14:13:11.536Z,740
2017-08-17T14:14:23.476Z,735
2017-08-17T14:15:35.719Z,740
2017-08-17T14:16:48.327Z,745
2017-08-17T14:18:00.276Z,740
2017-08-17T14:19:12.578Z,735
2017-08-17T14:20:24.815Z,730
2017-08-17T14:21:37.163Z,725
2017-08-17T14:22:49.793Z,715
2017-08-17T14:24:02.450Z,710
2017-08-17T14:25:14.398Z,715
2017-08-17T14:26:26.999Z,705
2017-08-17T14:27:39.301Z,700
2017-08-17T14:28:51.667Z,685
2017-08-17T14:30:04.323Z,665
2017-08-17T14:31:16.031Z,650
2017-08-17T14:32:28.352Z,635
2017-08-17T14:33:40.943Z,615
2017-08-17T14:34:52.982Z,600
2017-08-17T14:36:05.554Z,600
2017-08-17T14:37:17.541Z,600
2017-08-17T14:38:29.514Z,625
2017-08-17T14:39:42.079Z,660
2017-08-17T14:40:54.350Z,695
2017-08-17T14:42:06.932Z,720
2017-08-17T14:43:18.886Z,730
2017-08-17T14:44:31.170Z,725
2017-08-17T14:45:43.456Z,710
2017-08-17T14:46:56.075Z,690
2017-08-17T14:48:08.386Z,675
2017-08-17T14:49:20.691Z,650
2017-08-17T14:50:33.090Z,635
2017-08-17T14:51:45.358Z,625
2017-08-17T14:52:58.002Z,620
2017-08-17T14:54:09.997Z,605
2017-08-17T14:55:22.063Z,590
2017-08-17T14:56:34.699Z,575
2017-08-17T14:57:47.036Z,555
2017-08-17T14:58:59.351Z,530
2017-08-17T15:00:11.906Z,515
2017-08-17T15:01:24.491Z,490
2017-08-17T15:02:36.764Z,475
2017-08-17T15:03:48.793Z,465
2017-08-17T15:05:01.363Z,460
2017-08-17T15:06:13.986Z,455
2017-08-17T15:07:26.336Z,455
2017-08-17T15:08:38.649Z,455
2017-08-17T15:09:50.897Z,455
2017-08-17T15:11:03.446Z,455
2017-08-17T15:12:15.700Z,460
2017-08-17T15:13:28.383Z,460
2017-08-17T15:14:40.041Z,470
2017-08-17T15:15:52.317Z,475
2017-08-17T15:17:04.334Z,480
2017-08-17T15:18:16.624Z,485
2017-08-17T15:19:28.952Z,480
2017-08-17T15:20:41.519Z,480
2017-08-17T15:21:53.837Z,475
2017-08-17T15:23:06.119Z,470
2017-08-17T15:24:18.384Z,470
2017-08-17T15:25:30.053Z,460
2017-08-17T15:26:42.407Z,445
2017-08-17T15:27:55.064Z,435
2017-08-17T15:29:07.063Z,420
2017-08-17T15:30:19.413Z,410
2017-08-17T15:31:31.714Z,400
2017-08-17T15:32:44.075Z,390
2017-08-17T15:33:56.056Z,385
2017-08-17T15:35:08.078Z,380
2017-08-17T15:36:20.413Z,370
2017-08-17T15:37:32.745Z,365
2017-08-17T15:38:45.329Z,360
2017-08-17T15:39:57.945Z,355
2017-08-17T15:41:10.484Z,350
2017-08-17T15:42:22.840Z,345
2017-08-17T15:43:35.444Z,340
2017-08-17T15:44:47.784Z,340
2017-08-17T15:46:00.099Z,340
2017-08-17T15:47:12.397Z,340
2017-08-17T15:48:24.417Z,340
2017-08-17T15:49:36.410Z,345
2017-08-17T15:50:48.139Z,350
2017-08-17T15:52:00.430Z,355
2017-08-17T15:53:12.726Z,365
2017-08-17T15:54:24.732Z,365
2017-08-17T15:55:37.041Z,370
2017-08-17T15:56:49.698Z,375
2017-08-17T15:58:02.210Z,365
2017-08-17T15:59:14.486Z,355
2017-08-17T16:00:27.137Z,345
2017-08-17T16:01:39.676Z,340
2017-08-17T16:02:51.702Z,325
2017-08-17T16:04:04.044Z,315
2017-08-17T16:05:16.359Z,315
2017-08-17T16:06:28.923Z,310
2017-08-17T16:07:41.506Z,310
2017-08-17T16:08:54.048Z,315
2017-08-17T16:10:06.329Z,315
2017-08-17T16:11:18.650Z,315
2017-08-17T16:12:31.284Z,320
2017-08-17T16:13:43.588Z,320
2017-08-17T16:14:56.219Z,315
2017-08-17T16:16:08.527Z,315
2017-08-17T16:17:20.871Z,310
2017-08-17T16:18:32.906Z,305
2017-08-17T16:19:45.569Z,300
2017-08-17T16:20:57.579Z,295
2017-08-17T16:22:09.593Z,290
2017-08-17T16:23:21.309Z,290
2017-08-17T16:24:33.630Z,285
2017-08-17T16:25:46.174Z,285
2017-08-17T16:26:58.512Z,280
2017-08-17T16:28:10.524Z,285
2017-08-17T16:29:23.094Z,270
2017-08-17T16:30:35.085Z,265
2017-08-17T16:31:47.381Z,265
2017-08-17T16:33:00.008Z,260
2017-08-17T16:34:12.310Z,260
2017-08-17T16:35:24.244Z,260
2017-08-17T16:36:36.290Z,255
2017-08-17T16:37:48.240Z,255
2017-08-17T16:39:00.852Z,245
2017-08-17T16:40:12.908Z,240
2017-08-17T16:41:25.240Z,235
2017-08-17T16:42:37.914Z,225
2017-08-17T16:43:50.232Z,225
2017-08-17T16:45:02.250Z,220
2017-08-17T16:46:14.837Z,215
2017-08-17T16:47:26.764Z,215